KSPG/SPG METAR and TAF weather

Enter ICAO airport designator
Station Type Date Time Source
KSPG METAR 2021/09/27 07:53 UTC NOAA

KSPG 270753Z AUTO 12008KT 10SM CLR 26/20 A3006 RMK AO2 SLP177 T02610200


Station Type Date Time Source
KSPG Decoded METAR 2021/09/27 07:53 UTC NOAA

ST PETERSBURG WHITTED AIRPORT , FL, United States (KSPG) 27-46N 082-38W 2M
Sep 27, 2021 - 03:53 AM EDT / 2021.09.27 0753 UTC
Wind: from the ESE (120 degrees) at 9 MPH (8 KT):0
Visibility: 10 mile(s):0
Sky conditions: clear
Temperature: 79.0 F (26.1 C)
Dew Point: 68.0 F (20.0 C)
Relative Humidity: 69%
Pressure (altimeter): 30.06 in. Hg (1017 hPa)
ob: KSPG 270753Z AUTO 12008KT 10SM CLR 26/20 A3006 RMK AO2 SLP177 T02610200
cycle: 8

Station Type Date Time Source
KSPG TAF UTC NOAA

Error!

Example: see airport list